sensor_id;sensor_type;location;lat;lon;timestamp;P1;durP1;ratioP1;P2;durP2;ratioP2
6392;SDS011;3229;42.674;23.282;2023-09-07T00:00:41;11.80;;;6.90;;
6392;SDS011;3229;42.674;23.282;2023-09-07T00:03:09;11.77;;;7.45;;
6392;SDS011;3229;42.674;23.282;2023-09-07T00:05:36;7.30;;;6.57;;
6392;SDS011;3229;42.674;23.282;2023-09-07T00:08:03;12.00;;;7.13;;
6392;SDS011;3229;42.674;23.282;2023-09-07T00:10:31;8.50;;;7.45;;
6392;SDS011;3229;42.674;23.282;2023-09-07T00:13:00;7.97;;;6.90;;
6392;SDS011;3229;42.674;23.282;2023-09-07T00:15:27;8.95;;;7.28;;
6392;SDS011;3229;42.674;23.282;2023-09-07T00:17:54;7.90;;;7.13;;
6392;SDS011;3229;42.674;23.282;2023-09-07T00:20:23;9.52;;;7.05;;
6392;SDS011;3229;42.674;23.282;2023-09-07T00:22:50;10.63;;;7.82;;
6392;SDS011;3229;42.674;23.282;2023-09-07T00:25:17;12.70;;;6.95;;
6392;SDS011;3229;42.674;23.282;2023-09-07T00:27:45;10.73;;;7.95;;
6392;SDS011;3229;42.674;23.282;2023-09-07T00:30:12;8.77;;;7.88;;
6392;SDS011;3229;42.674;23.282;2023-09-07T00:32:39;8.77;;;6.95;;
6392;SDS011;3229;42.674;23.282;2023-09-07T00:35:06;14.35;;;7.13;;
6392;SDS011;3229;42.674;23.282;2023-09-07T00:37:35;9.52;;;7.35;;
6392;SDS011;3229;42.674;23.282;2023-09-07T00:40:01;9.13;;;8.20;;
6392;SDS011;3229;42.674;23.282;2023-09-07T00:42:33;8.18;;;7.30;;
6392;SDS011;3229;42.674;23.282;2023-09-07T00:45:00;15.07;;;7.97;;
6392;SDS011;3229;42.674;23.282;2023-09-07T00:47:27;14.57;;;8.20;;
6392;SDS011;3229;42.674;23.282;2023-09-07T00:49:55;8.85;;;7.95;;
6392;SDS011;3229;42.674;23.282;2023-09-07T00:52:23;10.55;;;8.43;;
6392;SDS011;3229;42.674;23.282;2023-09-07T00:54:51;9.90;;;8.88;;
6392;SDS011;3229;42.674;23.282;2023-09-07T00:57:18;10.20;;;8.95;;
6392;SDS011;3229;42.674;23.282;2023-09-07T00:59:45;13.48;;;9.07;;
6392;SDS011;3229;42.674;23.282;2023-09-07T01:02:12;11.52;;;9.40;;
6392;SDS011;3229;42.674;23.282;2023-09-07T01:04:39;9.55;;;8.05;;
6392;SDS011;3229;42.674;23.282;2023-09-07T01:07:09;10.38;;;8.20;;
6392;SDS011;3229;42.674;23.282;2023-09-07T01:09:40;11.55;;;9.45;;
6392;SDS011;3229;42.674;23.282;2023-09-07T01:12:14;11.27;;;10.02;;
6392;SDS011;3229;42.674;23.282;2023-09-07T01:14:41;11.13;;;9.85;;
6392;SDS011;3229;42.674;23.282;2023-09-07T01:17:08;13.93;;;9.93;;
6392;SDS011;3229;42.674;23.282;2023-09-07T01:19:36;12.02;;;10.77;;
6392;SDS011;3229;42.674;23.282;2023-09-07T01:22:05;12.95;;;10.48;;
6392;SDS011;3229;42.674;23.282;2023-09-07T01:24:33;12.27;;;10.70;;
6392;SDS011;3229;42.674;23.282;2023-09-07T01:27:01;14.68;;;10.80;;
6392;SDS011;3229;42.674;23.282;2023-09-07T01:29:31;14.65;;;10.95;;
6392;SDS011;3229;42.674;23.282;2023-09-07T01:31:58;12.30;;;10.90;;
6392;SDS011;3229;42.674;23.282;2023-09-07T01:34:27;14.82;;;9.95;;
6392;SDS011;3229;42.674;23.282;2023-09-07T01:36:53;14.40;;;10.85;;
6392;SDS011;3229;42.674;23.282;2023-09-07T01:39:22;12.80;;;11.02;;
6392;SDS011;3229;42.674;23.282;2023-09-07T01:41:49;13.25;;;10.85;;
6392;SDS011;3229;42.674;23.282;2023-09-07T01:44:16;11.32;;;10.13;;
6392;SDS011;3229;42.674;23.282;2023-09-07T01:46:43;16.48;;;10.63;;
6392;SDS011;3229;42.674;23.282;2023-09-07T01:49:09;13.23;;;10.50;;
6392;SDS011;3229;42.674;23.282;2023-09-07T01:51:36;14.02;;;12.10;;
6392;SDS011;3229;42.674;23.282;2023-09-07T01:54:03;12.85;;;10.85;;
6392;SDS011;3229;42.674;23.282;2023-09-07T01:56:32;13.80;;;10.23;;
6392;SDS011;3229;42.674;23.282;2023-09-07T01:59:00;12.75;;;10.10;;
6392;SDS011;3229;42.674;23.282;2023-09-07T02:01:28;14.52;;;11.07;;
6392;SDS011;3229;42.674;23.282;2023-09-07T02:03:56;11.75;;;10.55;;
6392;SDS011;3229;42.674;23.282;2023-09-07T02:06:23;12.43;;;11.15;;
6392;SDS011;3229;42.674;23.282;2023-09-07T02:08:50;12.20;;;10.98;;
6392;SDS011;3229;42.674;23.282;2023-09-07T02:11:17;14.68;;;11.07;;
6392;SDS011;3229;42.674;23.282;2023-09-07T02:13:46;12.73;;;11.43;;
6392;SDS011;3229;42.674;23.282;2023-09-07T02:16:15;12.77;;;11.48;;
6392;SDS011;3229;42.674;23.282;2023-09-07T02:18:43;12.30;;;11.10;;
6392;SDS011;3229;42.674;23.282;2023-09-07T02:21:13;13.93;;;10.98;;
6392;SDS011;3229;42.674;23.282;2023-09-07T02:23:42;17.35;;;11.18;;
6392;SDS011;3229;42.674;23.282;2023-09-07T02:26:09;11.82;;;10.63;;
6392;SDS011;3229;42.674;23.282;2023-09-07T02:28:36;13.05;;;10.70;;
6392;SDS011;3229;42.674;23.282;2023-09-07T02:31:04;13.07;;;10.85;;
6392;SDS011;3229;42.674;23.282;2023-09-07T02:33:34;15.75;;;10.88;;
6392;SDS011;3229;42.674;23.282;2023-09-07T02:36:01;13.20;;;11.77;;
6392;SDS011;3229;42.674;23.282;2023-09-07T02:38:29;16.95;;;11.02;;
6392;SDS011;3229;42.674;23.282;2023-09-07T02:40:59;14.02;;;11.85;;
6392;SDS011;3229;42.674;23.282;2023-09-07T02:43:26;13.68;;;12.35;;
6392;SDS011;3229;42.674;23.282;2023-09-07T02:45:53;11.88;;;10.77;;
6392;SDS011;3229;42.674;23.282;2023-09-07T02:48:21;12.77;;;11.52;;
6392;SDS011;3229;42.674;23.282;2023-09-07T02:51:00;12.75;;;11.13;;
6392;SDS011;3229;42.674;23.282;2023-09-07T02:53:27;14.23;;;12.13;;
6392;SDS011;3229;42.674;23.282;2023-09-07T02:55:54;13.70;;;11.55;;
6392;SDS011;3229;42.674;23.282;2023-09-07T02:58:22;15.50;;;11.02;;
6392;SDS011;3229;42.674;23.282;2023-09-07T03:00:50;13.20;;;11.10;;
6392;SDS011;3229;42.674;23.282;2023-09-07T03:03:17;14.70;;;11.25;;
6392;SDS011;3229;42.674;23.282;2023-09-07T03:05:46;14.57;;;11.55;;
6392;SDS011;3229;42.674;23.282;2023-09-07T03:08:13;13.02;;;11.60;;
6392;SDS011;3229;42.674;23.282;2023-09-07T03:10:40;13.48;;;12.07;;
6392;SDS011;3229;42.674;23.282;2023-09-07T03:13:09;17.50;;;12.18;;
6392;SDS011;3229;42.674;23.282;2023-09-07T03:15:36;13.77;;;12.27;;
6392;SDS011;3229;42.674;23.282;2023-09-07T03:18:03;14.73;;;11.85;;
6392;SDS011;3229;42.674;23.282;2023-09-07T03:20:32;14.40;;;12.90;;
6392;SDS011;3229;42.674;23.282;2023-09-07T03:23:01;16.92;;;12.82;;
6392;SDS011;3229;42.674;23.282;2023-09-07T03:25:28;16.42;;;14.13;;
6392;SDS011;3229;42.674;23.282;2023-09-07T03:27:56;17.17;;;14.73;;
6392;SDS011;3229;42.674;23.282;2023-09-07T03:30:23;18.23;;;13.75;;
6392;SDS011;3229;42.674;23.282;2023-09-07T03:32:51;21.92;;;14.50;;
6392;SDS011;3229;42.674;23.282;2023-09-07T03:35:18;16.92;;;14.00;;
6392;SDS011;3229;42.674;23.282;2023-09-07T03:37:45;16.73;;;14.98;;
6392;SDS011;3229;42.674;23.282;2023-09-07T03:40:13;19.42;;;14.25;;
6392;SDS011;3229;42.674;23.282;2023-09-07T03:42:40;16.60;;;14.85;;
6392;SDS011;3229;42.674;23.282;2023-09-07T03:45:08;18.10;;;16.02;;
6392;SDS011;3229;42.674;23.282;2023-09-07T03:47:37;18.85;;;14.55;;
6392;SDS011;3229;42.674;23.282;2023-09-07T03:50:04;16.10;;;14.27;;
6392;SDS011;3229;42.674;23.282;2023-09-07T03:52:32;18.73;;;14.02;;
6392;SDS011;3229;42.674;23.282;2023-09-07T03:54:59;16.20;;;14.55;;
6392;SDS011;3229;42.674;23.282;2023-09-07T03:57:28;15.93;;;14.13;;
6392;SDS011;3229;42.674;23.282;2023-09-07T04:02:23;15.80;;;14.05;;
6392;SDS011;3229;42.674;23.282;2023-09-07T04:04:51;16.65;;;14.80;;
6392;SDS011;3229;42.674;23.282;2023-09-07T04:07:20;16.60;;;14.90;;
6392;SDS011;3229;42.674;23.282;2023-09-07T04:09:47;16.45;;;14.23;;
6392;SDS011;3229;42.674;23.282;2023-09-07T04:12:14;16.40;;;14.80;;
6392;SDS011;3229;42.674;23.282;2023-09-07T04:14:42;18.83;;;13.95;;
6392;SDS011;3229;42.674;23.282;2023-09-07T04:17:11;18.27;;;14.32;;
6392;SDS011;3229;42.674;23.282;2023-09-07T04:19:38;18.50;;;14.90;;
6392;SDS011;3229;42.674;23.282;2023-09-07T04:22:04;15.20;;;13.65;;
6392;SDS011;3229;42.674;23.282;2023-09-07T04:24:31;20.27;;;15.05;;
6392;SDS011;3229;42.674;23.282;2023-09-07T04:26:59;16.98;;;14.43;;
6392;SDS011;3229;42.674;23.282;2023-09-07T04:29:28;16.20;;;13.50;;
6392;SDS011;3229;42.674;23.282;2023-09-07T04:31:57;16.43;;;13.63;;
6392;SDS011;3229;42.674;23.282;2023-09-07T04:34:31;16.10;;;13.65;;
6392;SDS011;3229;42.674;23.282;2023-09-07T04:36:58;17.20;;;14.45;;
6392;SDS011;3229;42.674;23.282;2023-09-07T04:39:31;16.35;;;13.45;;
6392;SDS011;3229;42.674;23.282;2023-09-07T04:42:00;18.67;;;13.13;;
6392;SDS011;3229;42.674;23.282;2023-09-07T04:44:27;16.37;;;13.27;;
6392;SDS011;3229;42.674;23.282;2023-09-07T04:46:58;17.08;;;13.95;;
6392;SDS011;3229;42.674;23.282;2023-09-07T04:49:26;17.63;;;14.52;;
6392;SDS011;3229;42.674;23.282;2023-09-07T04:51:53;16.02;;;14.32;;
6392;SDS011;3229;42.674;23.282;2023-09-07T04:54:20;15.18;;;13.38;;
6392;SDS011;3229;42.674;23.282;2023-09-07T04:56:47;17.42;;;13.55;;
6392;SDS011;3229;42.674;23.282;2023-09-07T04:59:14;15.05;;;13.27;;
6392;SDS011;3229;42.674;23.282;2023-09-07T05:01:40;14.70;;;13.18;;
6392;SDS011;3229;42.674;23.282;2023-09-07T05:04:11;15.88;;;14.15;;
6392;SDS011;3229;42.674;23.282;2023-09-07T05:06:39;16.00;;;14.00;;
6392;SDS011;3229;42.674;23.282;2023-09-07T05:09:06;19.77;;;13.45;;
6392;SDS011;3229;42.674;23.282;2023-09-07T05:11:35;15.30;;;13.48;;
6392;SDS011;3229;42.674;23.282;2023-09-07T05:14:04;17.88;;;13.85;;
6392;SDS011;3229;42.674;23.282;2023-09-07T05:16:30;13.50;;;12.10;;
6392;SDS011;3229;42.674;23.282;2023-09-07T05:18:57;13.63;;;12.23;;
6392;SDS011;3229;42.674;23.282;2023-09-07T05:21:25;14.30;;;12.80;;
6392;SDS011;3229;42.674;23.282;2023-09-07T05:23:52;13.98;;;12.52;;
6392;SDS011;3229;42.674;23.282;2023-09-07T05:26:22;17.15;;;13.40;;
6392;SDS011;3229;42.674;23.282;2023-09-07T05:28:49;19.75;;;15.77;;
6392;SDS011;3229;42.674;23.282;2023-09-07T05:31:16;19.70;;;13.35;;
6392;SDS011;3229;42.674;23.282;2023-09-07T05:33:45;17.00;;;14.48;;
6392;SDS011;3229;42.674;23.282;2023-09-07T05:36:12;19.95;;;15.55;;
6392;SDS011;3229;42.674;23.282;2023-09-07T05:38:45;17.60;;;14.47;;
6392;SDS011;3229;42.674;23.282;2023-09-07T05:41:12;16.73;;;14.98;;
6392;SDS011;3229;42.674;23.282;2023-09-07T05:43:40;18.40;;;15.00;;
6392;SDS011;3229;42.674;23.282;2023-09-07T05:46:07;16.75;;;13.77;;
6392;SDS011;3229;42.674;23.282;2023-09-07T05:48:34;15.70;;;14.10;;
6392;SDS011;3229;42.674;23.282;2023-09-07T05:51:02;17.20;;;13.60;;
6392;SDS011;3229;42.674;23.282;2023-09-07T05:53:29;15.63;;;13.07;;
6392;SDS011;3229;42.674;23.282;2023-09-07T05:55:58;13.90;;;12.30;;
6392;SDS011;3229;42.674;23.282;2023-09-07T05:58:25;13.05;;;11.85;;
6392;SDS011;3229;42.674;23.282;2023-09-07T06:00:52;19.63;;;13.95;;
6392;SDS011;3229;42.674;23.282;2023-09-07T06:03:19;15.85;;;12.77;;
6392;SDS011;3229;42.674;23.282;2023-09-07T06:08:33;13.38;;;11.60;;
6392;SDS011;3229;42.674;23.282;2023-09-07T06:11:01;16.90;;;12.07;;
6392;SDS011;3229;42.674;23.282;2023-09-07T06:13:28;15.55;;;11.60;;
6392;SDS011;3229;42.674;23.282;2023-09-07T06:15:55;14.07;;;11.00;;
6392;SDS011;3229;42.674;23.282;2023-09-07T06:18:22;14.40;;;11.00;;
6392;SDS011;3229;42.674;23.282;2023-09-07T06:20:48;16.67;;;11.23;;
6392;SDS011;3229;42.674;23.282;2023-09-07T06:23:15;16.30;;;10.27;;
6392;SDS011;3229;42.674;23.282;2023-09-07T06:25:42;13.45;;;10.70;;
6392;SDS011;3229;42.674;23.282;2023-09-07T06:28:10;10.05;;;9.05;;
6392;SDS011;3229;42.674;23.282;2023-09-07T06:30:38;11.73;;;8.80;;
6392;SDS011;3229;42.674;23.282;2023-09-07T06:33:04;10.40;;;9.02;;
6392;SDS011;3229;42.674;23.282;2023-09-07T06:35:31;9.85;;;8.85;;
6392;SDS011;3229;42.674;23.282;2023-09-07T06:37:58;8.75;;;7.95;;
6392;SDS011;3229;42.674;23.282;2023-09-07T06:40:25;9.70;;;8.68;;
6392;SDS011;3229;42.674;23.282;2023-09-07T06:42:52;12.57;;;8.57;;
6392;SDS011;3229;42.674;23.282;2023-09-07T06:45:20;8.00;;;7.20;;
6392;SDS011;3229;42.674;23.282;2023-09-07T06:47:49;15.80;;;7.55;;
6392;SDS011;3229;42.674;23.282;2023-09-07T06:50:16;10.93;;;7.88;;
6392;SDS011;3229;42.674;23.282;2023-09-07T06:52:43;7.22;;;6.15;;
6392;SDS011;3229;42.674;23.282;2023-09-07T06:55:10;9.45;;;7.03;;
6392;SDS011;3229;42.674;23.282;2023-09-07T06:57:36;9.35;;;6.65;;
6392;SDS011;3229;42.674;23.282;2023-09-07T07:00:03;7.47;;;6.68;;
6392;SDS011;3229;42.674;23.282;2023-09-07T07:02:33;11.60;;;7.25;;
6392;SDS011;3229;42.674;23.282;2023-09-07T07:05:00;7.80;;;7.03;;
6392;SDS011;3229;42.674;23.282;2023-09-07T07:07:28;7.30;;;6.60;;
6392;SDS011;3229;42.674;23.282;2023-09-07T07:09:55;11.50;;;6.57;;
6392;SDS011;3229;42.674;23.282;2023-09-07T07:12:22;9.40;;;6.70;;
6392;SDS011;3229;42.674;23.282;2023-09-07T07:14:49;13.70;;;8.20;;
6392;SDS011;3229;42.674;23.282;2023-09-07T07:17:16;11.85;;;6.95;;
6392;SDS011;3229;42.674;23.282;2023-09-07T07:19:44;13.48;;;7.30;;
6392;SDS011;3229;42.674;23.282;2023-09-07T07:22:12;9.90;;;7.32;;
6392;SDS011;3229;42.674;23.282;2023-09-07T07:24:39;7.90;;;6.70;;
6392;SDS011;3229;42.674;23.282;2023-09-07T07:27:05;8.07;;;6.30;;
6392;SDS011;3229;42.674;23.282;2023-09-07T07:29:32;9.55;;;5.95;;
6392;SDS011;3229;42.674;23.282;2023-09-07T07:31:59;7.57;;;6.72;;
6392;SDS011;3229;42.674;23.282;2023-09-07T07:34:26;9.05;;;7.03;;
6392;SDS011;3229;42.674;23.282;2023-09-07T07:36:54;9.23;;;6.97;;
6392;SDS011;3229;42.674;23.282;2023-09-07T07:39:21;8.98;;;7.25;;
6392;SDS011;3229;42.674;23.282;2023-09-07T07:41:48;9.98;;;7.25;;
6392;SDS011;3229;42.674;23.282;2023-09-07T07:44:19;11.10;;;7.00;;
6392;SDS011;3229;42.674;23.282;2023-09-07T07:46:46;12.07;;;6.28;;
6392;SDS011;3229;42.674;23.282;2023-09-07T07:49:14;8.52;;;6.88;;
6392;SDS011;3229;42.674;23.282;2023-09-07T07:51:41;11.38;;;8.20;;
6392;SDS011;3229;42.674;23.282;2023-09-07T07:54:09;9.98;;;6.65;;
6392;SDS011;3229;42.674;23.282;2023-09-07T07:56:38;11.10;;;7.78;;
6392;SDS011;3229;42.674;23.282;2023-09-07T07:59:05;11.95;;;7.93;;
6392;SDS011;3229;42.674;23.282;2023-09-07T08:01:31;9.60;;;7.07;;
6392;SDS011;3229;42.674;23.282;2023-09-07T08:03:58;10.07;;;6.63;;
6392;SDS011;3229;42.674;23.282;2023-09-07T08:06:25;10.07;;;6.90;;
6392;SDS011;3229;42.674;23.282;2023-09-07T08:08:52;7.63;;;6.80;;
6392;SDS011;3229;42.674;23.282;2023-09-07T08:11:20;8.05;;;7.35;;
6392;SDS011;3229;42.674;23.282;2023-09-07T08:13:47;10.05;;;7.35;;
6392;SDS011;3229;42.674;23.282;2023-09-07T08:16:14;8.82;;;7.22;;
6392;SDS011;3229;42.674;23.282;2023-09-07T08:18:41;9.45;;;6.40;;
6392;SDS011;3229;42.674;23.282;2023-09-07T08:21:07;7.22;;;6.53;;
6392;SDS011;3229;42.674;23.282;2023-09-07T08:23:34;8.98;;;6.35;;
6392;SDS011;3229;42.674;23.282;2023-09-07T08:26:01;8.02;;;7.22;;
6392;SDS011;3229;42.674;23.282;2023-09-07T08:28:31;14.25;;;7.07;;
6392;SDS011;3229;42.674;23.282;2023-09-07T08:30:58;11.32;;;7.28;;
6392;SDS011;3229;42.674;23.282;2023-09-07T08:33:25;9.32;;;6.60;;
6392;SDS011;3229;42.674;23.282;2023-09-07T08:35:54;7.38;;;6.10;;
6392;SDS011;3229;42.674;23.282;2023-09-07T08:38:21;10.27;;;6.60;;
6392;SDS011;3229;42.674;23.282;2023-09-07T08:40:53;8.38;;;6.82;;
6392;SDS011;3229;42.674;23.282;2023-09-07T08:43:20;11.13;;;6.25;;
6392;SDS011;3229;42.674;23.282;2023-09-07T08:45:51;9.18;;;6.13;;
6392;SDS011;3229;42.674;23.282;2023-09-07T08:48:25;7.15;;;6.47;;
6392;SDS011;3229;42.674;23.282;2023-09-07T08:50:52;9.70;;;6.07;;
6392;SDS011;3229;42.674;23.282;2023-09-07T08:53:20;6.50;;;5.90;;
6392;SDS011;3229;42.674;23.282;2023-09-07T08:55:47;7.57;;;6.40;;
6392;SDS011;3229;42.674;23.282;2023-09-07T08:58:14;7.13;;;6.47;;
6392;SDS011;3229;42.674;23.282;2023-09-07T09:00:41;13.77;;;5.88;;
6392;SDS011;3229;42.674;23.282;2023-09-07T09:03:10;6.75;;;5.53;;
6392;SDS011;3229;42.674;23.282;2023-09-07T09:05:39;7.88;;;5.47;;
6392;SDS011;3229;42.674;23.282;2023-09-07T09:08:07;6.13;;;5.38;;
6392;SDS011;3229;42.674;23.282;2023-09-07T09:10:40;6.43;;;5.75;;
6392;SDS011;3229;42.674;23.282;2023-09-07T09:13:08;6.95;;;5.95;;
6392;SDS011;3229;42.674;23.282;2023-09-07T09:15:37;7.47;;;5.72;;
6392;SDS011;3229;42.674;23.282;2023-09-07T09:18:12;5.45;;;4.93;;
6392;SDS011;3229;42.674;23.282;2023-09-07T09:20:42;8.43;;;5.55;;
6392;SDS011;3229;42.674;23.282;2023-09-07T09:23:09;6.25;;;5.65;;
6392;SDS011;3229;42.674;23.282;2023-09-07T09:25:39;7.63;;;6.53;;
6392;SDS011;3229;42.674;23.282;2023-09-07T09:28:08;6.20;;;5.28;;
6392;SDS011;3229;42.674;23.282;2023-09-07T09:30:35;5.32;;;4.82;;
6392;SDS011;3229;42.674;23.282;2023-09-07T09:33:02;7.18;;;5.65;;
6392;SDS011;3229;42.674;23.282;2023-09-07T09:35:32;6.90;;;5.45;;
6392;SDS011;3229;42.674;23.282;2023-09-07T09:38:01;11.80;;;6.47;;
6392;SDS011;3229;42.674;23.282;2023-09-07T09:40:29;8.63;;;5.35;;
6392;SDS011;3229;42.674;23.282;2023-09-07T09:42:57;5.60;;;4.97;;
6392;SDS011;3229;42.674;23.282;2023-09-07T09:45:25;5.38;;;4.85;;
6392;SDS011;3229;42.674;23.282;2023-09-07T09:47:53;7.88;;;5.60;;
6392;SDS011;3229;42.674;23.282;2023-09-07T09:50:22;7.53;;;5.30;;
6392;SDS011;3229;42.674;23.282;2023-09-07T09:52:50;4.95;;;4.32;;
6392;SDS011;3229;42.674;23.282;2023-09-07T09:55:19;5.78;;;4.68;;
6392;SDS011;3229;42.674;23.282;2023-09-07T09:57:50;5.82;;;4.80;;
6392;SDS011;3229;42.674;23.282;2023-09-07T10:00:17;6.22;;;5.63;;
6392;SDS011;3229;42.674;23.282;2023-09-07T10:02:53;5.70;;;5.20;;
6392;SDS011;3229;42.674;23.282;2023-09-07T10:05:25;7.60;;;5.35;;
6392;SDS011;3229;42.674;23.282;2023-09-07T10:07:59;7.78;;;5.47;;
6392;SDS011;3229;42.674;23.282;2023-09-07T10:10:31;7.07;;;5.25;;
6392;SDS011;3229;42.674;23.282;2023-09-07T10:13:00;8.75;;;5.50;;
6392;SDS011;3229;42.674;23.282;2023-09-07T10:15:29;9.43;;;5.25;;
6392;SDS011;3229;42.674;23.282;2023-09-07T10:18:03;5.03;;;4.55;;
6392;SDS011;3229;42.674;23.282;2023-09-07T10:20:34;8.95;;;5.15;;
6392;SDS011;3229;42.674;23.282;2023-09-07T10:23:15;6.55;;;5.55;;
6392;SDS011;3229;42.674;23.282;2023-09-07T10:25:44;8.70;;;5.32;;
6392;SDS011;3229;42.674;23.282;2023-09-07T10:28:18;6.13;;;5.53;;
6392;SDS011;3229;42.674;23.282;2023-09-07T10:30:58;8.10;;;5.57;;
6392;SDS011;3229;42.674;23.282;2023-09-07T10:33:28;7.68;;;4.88;;
6392;SDS011;3229;42.674;23.282;2023-09-07T10:35:55;7.68;;;5.18;;
6392;SDS011;3229;42.674;23.282;2023-09-07T10:38:24;9.57;;;5.38;;
6392;SDS011;3229;42.674;23.282;2023-09-07T10:40:55;6.32;;;5.22;;
6392;SDS011;3229;42.674;23.282;2023-09-07T10:43:28;7.72;;;5.50;;
6392;SDS011;3229;42.674;23.282;2023-09-07T10:45:56;5.47;;;4.57;;
6392;SDS011;3229;42.674;23.282;2023-09-07T10:48:25;6.60;;;5.80;;
6392;SDS011;3229;42.674;23.282;2023-09-07T10:50:55;6.88;;;5.18;;
6392;SDS011;3229;42.674;23.282;2023-09-07T10:53:27;16.88;;;5.60;;
6392;SDS011;3229;42.674;23.282;2023-09-07T10:55:54;17.20;;;5.68;;
6392;SDS011;3229;42.674;23.282;2023-09-07T10:58:24;8.32;;;5.40;;
6392;SDS011;3229;42.674;23.282;2023-09-07T11:00:53;5.80;;;5.25;;
6392;SDS011;3229;42.674;23.282;2023-09-07T11:03:19;7.75;;;5.18;;
6392;SDS011;3229;42.674;23.282;2023-09-07T11:05:46;5.43;;;4.90;;
6392;SDS011;3229;42.674;23.282;2023-09-07T11:08:15;6.47;;;5.20;;
6392;SDS011;3229;42.674;23.282;2023-09-07T11:10:43;7.15;;;4.68;;
6392;SDS011;3229;42.674;23.282;2023-09-07T11:13:10;5.80;;;5.25;;
6392;SDS011;3229;42.674;23.282;2023-09-07T11:15:37;7.45;;;5.68;;
6392;SDS011;3229;42.674;23.282;2023-09-07T11:18:04;10.05;;;5.63;;
6392;SDS011;3229;42.674;23.282;2023-09-07T11:20:32;6.03;;;4.60;;
6392;SDS011;3229;42.674;23.282;2023-09-07T11:22:59;5.63;;;4.68;;
6392;SDS011;3229;42.674;23.282;2023-09-07T11:25:26;5.85;;;5.13;;
6392;SDS011;3229;42.674;23.282;2023-09-07T11:27:54;7.47;;;4.63;;
6392;SDS011;3229;42.674;23.282;2023-09-07T11:30:24;4.63;;;4.22;;
6392;SDS011;3229;42.674;23.282;2023-09-07T11:32:59;13.75;;;4.90;;
6392;SDS011;3229;42.674;23.282;2023-09-07T11:35:27;5.80;;;4.43;;
6392;SDS011;3229;42.674;23.282;2023-09-07T11:37:54;4.93;;;4.43;;
6392;SDS011;3229;42.674;23.282;2023-09-07T11:40:21;4.93;;;3.92;;
6392;SDS011;3229;42.674;23.282;2023-09-07T11:42:52;6.93;;;4.45;;
6392;SDS011;3229;42.674;23.282;2023-09-07T11:45:21;5.00;;;4.57;;
6392;SDS011;3229;42.674;23.282;2023-09-07T11:47:48;4.97;;;4.30;;
6392;SDS011;3229;42.674;23.282;2023-09-07T11:50:16;9.40;;;4.60;;
6392;SDS011;3229;42.674;23.282;2023-09-07T11:52:43;5.22;;;3.90;;
6392;SDS011;3229;42.674;23.282;2023-09-07T11:55:11;5.03;;;4.45;;
6392;SDS011;3229;42.674;23.282;2023-09-07T11:57:41;7.65;;;5.15;;
6392;SDS011;3229;42.674;23.282;2023-09-07T12:00:08;5.75;;;4.65;;
6392;SDS011;3229;42.674;23.282;2023-09-07T12:02:38;6.32;;;4.43;;
6392;SDS011;3229;42.674;23.282;2023-09-07T12:05:05;5.65;;;4.43;;
6392;SDS011;3229;42.674;23.282;2023-09-07T12:07:34;5.03;;;4.53;;
6392;SDS011;3229;42.674;23.282;2023-09-07T12:10:01;6.32;;;4.10;;
6392;SDS011;3229;42.674;23.282;2023-09-07T12:12:35;5.32;;;3.92;;
6392;SDS011;3229;42.674;23.282;2023-09-07T12:15:04;5.68;;;4.95;;
6392;SDS011;3229;42.674;23.282;2023-09-07T12:17:32;5.72;;;4.85;;
6392;SDS011;3229;42.674;23.282;2023-09-07T12:20:01;6.70;;;4.70;;
6392;SDS011;3229;42.674;23.282;2023-09-07T12:22:30;9.00;;;4.60;;
6392;SDS011;3229;42.674;23.282;2023-09-07T12:24:59;9.90;;;4.50;;
6392;SDS011;3229;42.674;23.282;2023-09-07T12:27:26;5.68;;;4.00;;
6392;SDS011;3229;42.674;23.282;2023-09-07T12:29:53;5.00;;;4.50;;
6392;SDS011;3229;42.674;23.282;2023-09-07T12:32:20;6.00;;;4.28;;
6392;SDS011;3229;42.674;23.282;2023-09-07T12:34:47;8.82;;;4.68;;
6392;SDS011;3229;42.674;23.282;2023-09-07T12:37:20;5.20;;;4.70;;
6392;SDS011;3229;42.674;23.282;2023-09-07T12:39:48;5.65;;;3.85;;
6392;SDS011;3229;42.674;23.282;2023-09-07T12:42:15;5.22;;;4.25;;
6392;SDS011;3229;42.674;23.282;2023-09-07T12:44:43;5.93;;;4.30;;
6392;SDS011;3229;42.674;23.282;2023-09-07T12:47:10;5.78;;;5.00;;
6392;SDS011;3229;42.674;23.282;2023-09-07T12:49:36;4.90;;;4.38;;
6392;SDS011;3229;42.674;23.282;2023-09-07T12:52:03;5.45;;;4.20;;
6392;SDS011;3229;42.674;23.282;2023-09-07T12:54:35;6.13;;;4.07;;
6392;SDS011;3229;42.674;23.282;2023-09-07T12:57:02;5.00;;;4.18;;
6392;SDS011;3229;42.674;23.282;2023-09-07T12:59:29;4.22;;;3.83;;
6392;SDS011;3229;42.674;23.282;2023-09-07T13:01:56;5.15;;;3.90;;
6392;SDS011;3229;42.674;23.282;2023-09-07T13:04:23;6.63;;;4.57;;
6392;SDS011;3229;42.674;23.282;2023-09-07T13:06:50;6.38;;;3.75;;
6392;SDS011;3229;42.674;23.282;2023-09-07T13:09:17;7.07;;;4.28;;
6392;SDS011;3229;42.674;23.282;2023-09-07T13:11:45;8.23;;;4.28;;
6392;SDS011;3229;42.674;23.282;2023-09-07T13:14:11;4.40;;;4.00;;
6392;SDS011;3229;42.674;23.282;2023-09-07T13:16:38;4.63;;;4.07;;
6392;SDS011;3229;42.674;23.282;2023-09-07T13:19:05;4.90;;;4.07;;
6392;SDS011;3229;42.674;23.282;2023-09-07T13:21:32;4.38;;;3.97;;
6392;SDS011;3229;42.674;23.282;2023-09-07T13:23:59;7.97;;;4.28;;
6392;SDS011;3229;42.674;23.282;2023-09-07T13:26:25;7.85;;;3.70;;
6392;SDS011;3229;42.674;23.282;2023-09-07T13:28:53;5.57;;;4.32;;
6392;SDS011;3229;42.674;23.282;2023-09-07T13:31:20;7.25;;;4.38;;
6392;SDS011;3229;42.674;23.282;2023-09-07T13:33:47;13.15;;;4.43;;
6392;SDS011;3229;42.674;23.282;2023-09-07T13:36:15;4.18;;;3.80;;
6392;SDS011;3229;42.674;23.282;2023-09-07T13:38:42;7.45;;;4.60;;
6392;SDS011;3229;42.674;23.282;2023-09-07T13:41:09;6.97;;;4.07;;
6392;SDS011;3229;42.674;23.282;2023-09-07T13:43:35;7.30;;;4.20;;
6392;SDS011;3229;42.674;23.282;2023-09-07T13:46:03;4.43;;;4.03;;
6392;SDS011;3229;42.674;23.282;2023-09-07T13:48:30;8.93;;;4.18;;
6392;SDS011;3229;42.674;23.282;2023-09-07T13:50:58;11.65;;;4.57;;
6392;SDS011;3229;42.674;23.282;2023-09-07T13:53:25;7.20;;;4.07;;
6392;SDS011;3229;42.674;23.282;2023-09-07T13:55:52;8.95;;;4.00;;
6392;SDS011;3229;42.674;23.282;2023-09-07T13:58:20;3.70;;;3.40;;
6392;SDS011;3229;42.674;23.282;2023-09-07T14:00:47;8.32;;;3.83;;
6392;SDS011;3229;42.674;23.282;2023-09-07T14:03:17;9.38;;;4.20;;
6392;SDS011;3229;42.674;23.282;2023-09-07T14:05:44;8.73;;;3.90;;
6392;SDS011;3229;42.674;23.282;2023-09-07T14:08:11;5.15;;;4.13;;
6392;SDS011;3229;42.674;23.282;2023-09-07T14:10:39;5.10;;;4.10;;
6392;SDS011;3229;42.674;23.282;2023-09-07T14:13:05;5.50;;;4.03;;
6392;SDS011;3229;42.674;23.282;2023-09-07T14:15:32;7.97;;;4.28;;
6392;SDS011;3229;42.674;23.282;2023-09-07T14:17:59;6.68;;;4.40;;
6392;SDS011;3229;42.674;23.282;2023-09-07T14:20:29;7.50;;;4.32;;
6392;SDS011;3229;42.674;23.282;2023-09-07T14:22:56;6.72;;;4.38;;
6392;SDS011;3229;42.674;23.282;2023-09-07T14:25:23;5.95;;;4.50;;
6392;SDS011;3229;42.674;23.282;2023-09-07T14:27:50;5.80;;;3.95;;
6392;SDS011;3229;42.674;23.282;2023-09-07T14:30:17;4.68;;;4.10;;
6392;SDS011;3229;42.674;23.282;2023-09-07T14:32:44;5.47;;;4.10;;
6392;SDS011;3229;42.674;23.282;2023-09-07T14:35:11;7.00;;;4.63;;
6392;SDS011;3229;42.674;23.282;2023-09-07T14:37:40;7.07;;;4.90;;
6392;SDS011;3229;42.674;23.282;2023-09-07T14:40:07;6.30;;;4.18;;
6392;SDS011;3229;42.674;23.282;2023-09-07T14:48:15;5.30;;;4.80;;
6392;SDS011;3229;42.674;23.282;2023-09-07T14:50:42;8.75;;;4.57;;
6392;SDS011;3229;42.674;23.282;2023-09-07T14:53:10;7.72;;;5.20;;
6392;SDS011;3229;42.674;23.282;2023-09-07T14:55:37;6.65;;;4.18;;
6392;SDS011;3229;42.674;23.282;2023-09-07T14:58:03;9.63;;;4.50;;
6392;SDS011;3229;42.674;23.282;2023-09-07T15:00:34;5.05;;;3.97;;
6392;SDS011;3229;42.674;23.282;2023-09-07T15:03:00;8.90;;;4.88;;
6392;SDS011;3229;42.674;23.282;2023-09-07T15:05:27;8.05;;;4.82;;